createdAt,value
2017-11-07T00:00:12.137Z,4.50
2017-11-07T00:02:42.737Z,4.50
2017-11-07T00:05:11.024Z,4.60
2017-11-07T00:07:39.894Z,4.60
2017-11-07T00:10:07.424Z,4.60
2017-11-07T00:12:34.993Z,4.60
2017-11-07T00:15:02.545Z,4.60
2017-11-07T00:17:30.087Z,4.50
2017-11-07T00:19:57.637Z,4.50
2017-11-07T00:22:35.057Z,4.50
2017-11-07T00:25:02.606Z,4.50
2017-11-07T00:27:30.150Z,4.50
2017-11-07T00:29:57.677Z,4.60
2017-11-07T00:32:25.248Z,4.60
2017-11-07T00:34:53.537Z,4.50
2017-11-07T00:37:21.830Z,4.60
2017-11-07T00:39:49.372Z,4.60
2017-11-07T00:42:16.906Z,4.50
2017-11-07T00:44:44.499Z,4.50
2017-11-07T00:47:12.049Z,4.50
2017-11-07T00:49:40.366Z,4.60
2017-11-07T00:52:07.893Z,4.60
2017-11-07T00:54:35.433Z,4.60
2017-11-07T00:57:02.966Z,4.60
2017-11-07T00:59:31.273Z,4.50
2017-11-07T01:01:58.806Z,4.50
2017-11-07T01:04:26.349Z,4.60
2017-11-07T01:06:53.897Z,4.50
2017-11-07T01:09:21.422Z,4.60
2017-11-07T01:11:49.731Z,4.50
2017-11-07T01:14:17.270Z,4.50
2017-11-07T01:16:44.827Z,4.50
2017-11-07T01:19:13.117Z,4.60
2017-11-07T01:21:40.642Z,4.60
2017-11-07T01:24:08.967Z,4.50
2017-11-07T01:26:36.527Z,4.50
2017-11-07T01:29:04.083Z,4.50
2017-11-07T01:31:31.650Z,4.50
2017-11-07T01:33:59.181Z,4.50
2017-11-07T01:36:26.728Z,4.50
2017-11-07T01:38:55.013Z,4.50
2017-11-07T01:41:22.558Z,4.50
2017-11-07T01:43:50.865Z,4.60
2017-11-07T01:46:18.391Z,4.60
2017-11-07T01:48:46.700Z,4.50
2017-11-07T01:51:14.230Z,4.50
2017-11-07T01:53:42.549Z,4.50
2017-11-07T01:56:10.081Z,4.50
2017-11-07T01:58:37.658Z,4.50
2017-11-07T02:01:05.197Z,4.50
2017-11-07T02:03:34.438Z,4.50
2017-11-07T02:06:01.973Z,4.50
2017-11-07T02:08:29.512Z,4.60
2017-11-07T02:10:57.829Z,4.60
2017-11-07T02:13:25.349Z,4.50
2017-11-07T02:15:53.654Z,4.60
2017-11-07T02:18:21.218Z,4.60
2017-11-07T02:20:48.770Z,4.70
2017-11-07T02:23:16.311Z,4.50
2017-11-07T02:25:43.862Z,4.60
2017-11-07T02:28:11.404Z,4.60
2017-11-07T02:30:38.957Z,4.50
2017-11-07T02:33:06.481Z,4.60
2017-11-07T02:35:34.051Z,4.60
2017-11-07T02:38:02.367Z,4.50
2017-11-07T02:40:29.900Z,4.50
2017-11-07T02:42:58.225Z,4.50
2017-11-07T02:45:25.766Z,4.50
2017-11-07T02:47:53.297Z,4.40
2017-11-07T02:50:21.619Z,4.50
2017-11-07T02:52:49.200Z,4.50
2017-11-07T02:55:16.751Z,4.40
2017-11-07T02:57:44.385Z,4.50
2017-11-07T03:00:11.917Z,4.50
2017-11-07T03:02:40.227Z,4.40
2017-11-07T03:05:07.777Z,4.40
2017-11-07T03:07:35.309Z,4.40
2017-11-07T03:10:03.635Z,4.40
2017-11-07T03:12:31.176Z,4.40
2017-11-07T03:14:58.729Z,4.40
2017-11-07T03:17:26.248Z,4.40
2017-11-07T03:19:53.813Z,4.40
2017-11-07T03:22:22.113Z,4.50
2017-11-07T03:24:49.664Z,4.40
2017-11-07T03:27:17.995Z,4.30
2017-11-07T03:29:45.544Z,4.30
2017-11-07T03:32:13.078Z,4.30
2017-11-07T03:34:40.622Z,4.30
2017-11-07T03:37:08.933Z,4.30
2017-11-07T03:39:36.488Z,4.30
2017-11-07T03:42:04.030Z,4.50
2017-11-07T03:44:31.594Z,4.40
2017-11-07T03:46:59.141Z,4.40
2017-11-07T03:49:27.471Z,4.30
2017-11-07T03:51:55.011Z,4.30
2017-11-07T03:54:22.552Z,4.30
2017-11-07T03:56:50.103Z,4.20
2017-11-07T03:59:17.640Z,4.30
2017-11-07T04:01:45.960Z,4.30
2017-11-07T04:04:13.521Z,4.20
2017-11-07T04:06:41.065Z,4.30
2017-11-07T04:09:08.618Z,4.30
2017-11-07T04:11:36.175Z,4.20
2017-11-07T04:14:04.462Z,4.20
2017-11-07T04:16:32.035Z,4.20
2017-11-07T04:18:59.576Z,4.20
2017-11-07T04:21:27.098Z,4.30
2017-11-07T04:23:54.661Z,4.20
2017-11-07T04:26:22.205Z,4.20
2017-11-07T04:28:49.750Z,4.20
2017-11-07T04:31:17.273Z,4.20
2017-11-07T04:33:44.825Z,4.30
2017-11-07T04:36:13.118Z,4.30
2017-11-07T04:38:40.673Z,4.20
2017-11-07T04:41:08.204Z,4.30
2017-11-07T04:43:35.765Z,4.20
2017-11-07T04:46:04.089Z,4.30
2017-11-07T04:48:31.633Z,4.20
2017-11-07T04:50:59.178Z,4.30
2017-11-07T04:53:26.741Z,4.20
2017-11-07T04:55:54.307Z,4.20
2017-11-07T04:58:21.848Z,4.40
2017-11-07T05:00:50.168Z,4.30
2017-11-07T05:03:17.693Z,4.30
2017-11-07T05:05:46.029Z,4.40
2017-11-07T05:08:13.558Z,4.40
2017-11-07T05:10:41.084Z,4.30
2017-11-07T05:13:09.413Z,4.30
2017-11-07T05:15:36.955Z,4.30
2017-11-07T05:18:04.524Z,4.30
2017-11-07T05:20:32.059Z,4.20
2017-11-07T05:22:59.615Z,4.20
2017-11-07T05:25:27.152Z,4.30
2017-11-07T05:27:56.095Z,4.30
2017-11-07T05:30:23.641Z,4.30
2017-11-07T05:32:51.202Z,4.40
2017-11-07T05:35:18.767Z,4.40
2017-11-07T05:37:46.328Z,4.30
2017-11-07T05:40:13.884Z,4.30
2017-11-07T05:42:41.417Z,4.40
2017-11-07T05:45:09.765Z,4.40
2017-11-07T05:47:37.305Z,4.40
2017-11-07T05:50:04.844Z,4.30
2017-11-07T05:52:32.369Z,4.30
2017-11-07T05:55:00.682Z,4.30
2017-11-07T05:57:28.224Z,4.30
2017-11-07T05:59:55.781Z,4.40
2017-11-07T06:02:23.314Z,4.40
2017-11-07T06:04:51.630Z,4.30
2017-11-07T06:07:19.154Z,4.30
2017-11-07T06:09:47.465Z,4.30
2017-11-07T06:12:15.006Z,4.30
2017-11-07T06:14:43.311Z,4.40
2017-11-07T06:17:13.172Z,4.40
2017-11-07T06:19:40.709Z,4.30
2017-11-07T06:22:08.265Z,4.40
2017-11-07T06:24:35.789Z,4.50
2017-11-07T06:27:03.524Z,4.40
2017-11-07T06:29:32.048Z,4.40
2017-11-07T06:32:01.227Z,4.40
2017-11-07T06:34:28.883Z,4.30
2017-11-07T06:36:56.469Z,4.40
2017-11-07T06:39:24.831Z,4.40
2017-11-07T06:41:52.610Z,4.40
2017-11-07T06:44:20.962Z,4.30
2017-11-07T06:46:48.504Z,4.30
2017-11-07T06:49:16.080Z,4.30
2017-11-07T06:51:43.628Z,4.40
2017-11-07T06:54:11.332Z,4.40
2017-11-07T06:56:38.948Z,4.40
2017-11-07T06:59:06.506Z,4.50
2017-11-07T07:01:34.056Z,4.40
2017-11-07T07:04:01.609Z,4.40
2017-11-07T07:06:29.150Z,4.40
2017-11-07T07:08:57.474Z,4.40
2017-11-07T07:11:25.005Z,4.30
2017-11-07T07:13:52.537Z,4.30
2017-11-07T07:16:20.105Z,4.30
2017-11-07T07:18:48.405Z,4.30
2017-11-07T07:21:15.961Z,4.30
2017-11-07T07:23:43.509Z,4.40
2017-11-07T07:26:11.822Z,4.40
2017-11-07T07:28:39.343Z,4.40
2017-11-07T07:31:07.666Z,4.40
2017-11-07T07:33:35.200Z,4.40
2017-11-07T07:36:02.746Z,4.50
2017-11-07T07:38:31.057Z,4.60
2017-11-07T07:40:58.869Z,4.60
2017-11-07T07:43:26.397Z,4.60
2017-11-07T07:45:54.041Z,4.70
2017-11-07T07:48:21.580Z,4.70
2017-11-07T07:50:49.129Z,4.60
2017-11-07T07:53:16.742Z,4.60
2017-11-07T07:55:44.302Z,4.60
2017-11-07T07:58:11.817Z,4.70
2017-11-07T08:00:39.354Z,4.70
2017-11-07T08:03:07.719Z,4.60
2017-11-07T08:05:36.029Z,4.60
2017-11-07T08:08:04.344Z,4.60
2017-11-07T08:10:31.893Z,4.60
2017-11-07T08:13:00.217Z,4.60
2017-11-07T08:15:27.785Z,4.60
2017-11-07T08:17:55.322Z,4.70
2017-11-07T08:20:22.891Z,4.70
2017-11-07T08:22:50.442Z,4.90
2017-11-07T08:25:17.973Z,4.90
2017-11-07T08:27:46.288Z,4.90
2017-11-07T08:30:13.838Z,4.90
2017-11-07T08:32:41.400Z,5.00
2017-11-07T08:35:08.931Z,4.90
2017-11-07T08:37:37.249Z,5.00
2017-11-07T08:40:04.813Z,5.00
2017-11-07T08:42:32.365Z,5.00
2017-11-07T08:44:59.918Z,5.00
2017-11-07T08:47:27.466Z,5.00
2017-11-07T08:49:55.128Z,4.90
2017-11-07T08:52:22.658Z,5.20
2017-11-07T08:54:50.977Z,5.20
2017-11-07T08:57:18.508Z,5.20
2017-11-07T08:59:46.067Z,5.20
2017-11-07T09:02:14.370Z,5.30
2017-11-07T09:04:41.901Z,5.20
2017-11-07T09:07:10.225Z,5.20
2017-11-07T09:09:37.749Z,5.20
2017-11-07T09:12:05.297Z,5.20
2017-11-07T09:14:33.608Z,5.10
2017-11-07T09:17:01.161Z,5.10
2017-11-07T09:19:28.727Z,5.20
2017-11-07T09:21:56.277Z,5.20
2017-11-07T09:24:23.830Z,5.20
2017-11-07T09:26:51.362Z,5.30
2017-11-07T09:29:18.926Z,5.30
2017-11-07T09:31:46.446Z,5.40
2017-11-07T09:34:14.073Z,5.40
2017-11-07T09:36:41.644Z,5.50
2017-11-07T09:39:09.941Z,5.30
2017-11-07T09:41:37.493Z,5.30
2017-11-07T09:44:05.036Z,5.40
2017-11-07T09:46:33.344Z,5.60
2017-11-07T09:49:00.870Z,5.70
2017-11-07T09:51:29.220Z,5.60
2017-11-07T09:53:56.760Z,5.60
2017-11-07T09:56:25.266Z,5.60
2017-11-07T09:58:52.793Z,5.60
2017-11-07T10:01:20.353Z,5.60
2017-11-07T10:03:47.878Z,5.60
2017-11-07T10:06:16.207Z,5.70
2017-11-07T10:08:43.731Z,5.60
2017-11-07T10:11:11.266Z,5.60
2017-11-07T10:13:38.817Z,5.70
2017-11-07T10:16:06.346Z,5.70
2017-11-07T10:18:33.913Z,5.80
2017-11-07T10:21:01.447Z,5.90
2017-11-07T10:23:29.772Z,5.80
2017-11-07T10:25:57.315Z,5.80
2017-11-07T10:28:24.857Z,5.80
2017-11-07T10:30:52.386Z,5.80
2017-11-07T10:33:19.946Z,5.80
2017-11-07T10:35:47.473Z,5.80
2017-11-07T10:38:15.029Z,5.90
2017-11-07T10:40:42.565Z,6.00
2017-11-07T10:43:10.115Z,5.90
2017-11-07T10:45:37.671Z,5.90
2017-11-07T10:48:05.994Z,6.00
2017-11-07T10:50:33.522Z,6.00
2017-11-07T10:53:01.083Z,6.00
2017-11-07T10:55:28.635Z,6.10
2017-11-07T10:57:56.214Z,6.00
2017-11-07T11:00:26.273Z,5.90
2017-11-07T11:02:53.824Z,5.90
2017-11-07T11:05:21.391Z,5.90
2017-11-07T11:07:48.925Z,5.90
2017-11-07T11:10:16.470Z,5.90
2017-11-07T11:12:43.995Z,5.80
2017-11-07T11:15:12.308Z,5.80
2017-11-07T11:17:39.829Z,5.70
2017-11-07T11:20:08.145Z,5.80
2017-11-07T11:22:35.682Z,5.80
2017-11-07T11:25:03.222Z,5.90
2017-11-07T11:27:30.780Z,5.90
2017-11-07T11:29:58.313Z,6.00
2017-11-07T11:32:25.951Z,6.00
2017-11-07T11:34:53.489Z,6.10
2017-11-07T11:37:21.060Z,6.00
2017-11-07T11:39:48.606Z,6.10
2017-11-07T11:42:16.913Z,6.00
2017-11-07T11:44:44.440Z,6.00
2017-11-07T11:47:12.753Z,6.10
2017-11-07T11:49:40.285Z,6.10
2017-11-07T11:52:07.842Z,6.00
2017-11-07T11:54:35.392Z,6.00
2017-11-07T11:57:03.692Z,5.90
2017-11-07T11:59:31.257Z,5.90
2017-11-07T12:01:58.781Z,5.90
2017-11-07T12:04:27.099Z,6.00
2017-11-07T12:06:54.652Z,5.90
2017-11-07T12:09:22.217Z,6.00
2017-11-07T12:11:49.760Z,6.10
2017-11-07T12:14:17.335Z,6.10
2017-11-07T12:16:45.027Z,6.00
2017-11-07T12:19:12.557Z,6.00
2017-11-07T12:21:40.921Z,6.00
2017-11-07T12:24:08.482Z,6.00
2017-11-07T12:26:36.017Z,6.10
2017-11-07T12:29:04.351Z,6.00
2017-11-07T12:31:31.889Z,6.00
2017-11-07T12:33:59.433Z,6.30
2017-11-07T12:36:26.966Z,6.40
2017-11-07T12:38:55.298Z,6.20
2017-11-07T12:41:22.837Z,6.20
2017-11-07T12:43:50.397Z,6.10
2017-11-07T12:46:17.921Z,6.00
2017-11-07T12:48:46.253Z,6.00
2017-11-07T12:51:25.739Z,6.00
2017-11-07T12:53:54.057Z,6.00
2017-11-07T12:56:21.608Z,6.10
2017-11-07T12:58:49.146Z,6.10
2017-11-07T13:01:16.717Z,6.10
2017-11-07T13:03:44.288Z,6.20
2017-11-07T13:06:12.740Z,6.20
2017-11-07T13:08:40.310Z,6.20
2017-11-07T13:11:07.873Z,6.30
2017-11-07T13:13:35.397Z,6.20
2017-11-07T13:16:02.954Z,6.20
2017-11-07T13:18:30.484Z,6.20
2017-11-07T13:20:58.057Z,6.20
2017-11-07T13:23:26.353Z,6.20
2017-11-07T13:25:53.975Z,6.10
2017-11-07T13:28:21.537Z,6.20
2017-11-07T13:30:49.101Z,6.30
2017-11-07T13:33:16.702Z,6.30
2017-11-07T13:35:44.250Z,6.30
2017-11-07T13:38:11.807Z,6.30
2017-11-07T13:40:39.353Z,6.20
2017-11-07T13:43:07.679Z,6.30
2017-11-07T13:45:35.227Z,6.20
2017-11-07T13:48:02.774Z,6.20
2017-11-07T13:50:30.340Z,6.20
2017-11-07T13:52:57.894Z,6.20
2017-11-07T13:55:25.425Z,6.20
2017-11-07T13:57:53.744Z,6.20
2017-11-07T14:00:21.283Z,6.20
2017-11-07T14:02:49.577Z,6.20
2017-11-07T14:05:17.134Z,6.20
2017-11-07T14:07:44.698Z,6.30
2017-11-07T14:10:12.263Z,6.20
2017-11-07T14:12:39.857Z,6.30
2017-11-07T14:15:07.411Z,6.30
2017-11-07T14:17:34.953Z,6.30
2017-11-07T14:20:02.647Z,6.30
2017-11-07T14:22:30.190Z,6.20
2017-11-07T14:24:57.744Z,6.30
2017-11-07T14:27:25.277Z,6.30
2017-11-07T14:29:52.825Z,6.30
2017-11-07T14:32:21.114Z,6.30
2017-11-07T14:34:48.642Z,6.30
2017-11-07T14:37:16.202Z,6.30
2017-11-07T14:39:43.771Z,6.30
2017-11-07T14:42:12.101Z,6.40
2017-11-07T14:44:39.674Z,6.40
2017-11-07T14:47:07.228Z,6.30
2017-11-07T14:49:34.772Z,6.40
2017-11-07T14:52:02.370Z,6.30
2017-11-07T14:54:30.214Z,6.30
2017-11-07T14:56:57.798Z,6.30
2017-11-07T14:59:25.357Z,6.20
2017-11-07T15:01:52.894Z,6.30
2017-11-07T15:04:20.449Z,6.30
2017-11-07T15:06:48.012Z,6.40
2017-11-07T15:09:15.589Z,6.30
2017-11-07T15:11:43.145Z,6.30
2017-11-07T15:14:10.675Z,6.40
2017-11-07T15:16:38.225Z,6.30
2017-11-07T15:19:05.799Z,6.30
2017-11-07T15:21:33.343Z,6.20
2017-11-07T15:24:00.915Z,6.30
2017-11-07T15:26:29.220Z,6.30
2017-11-07T15:28:56.778Z,6.30
2017-11-07T15:31:24.551Z,6.20
2017-11-07T15:33:52.118Z,6.30
2017-11-07T15:36:19.741Z,6.30
2017-11-07T15:38:47.401Z,6.30
2017-11-07T15:41:14.942Z,6.30
2017-11-07T15:43:42.499Z,6.30
2017-11-07T15:46:10.054Z,6.40
2017-11-07T15:48:37.607Z,6.30
2017-11-07T15:51:05.906Z,6.30
2017-11-07T15:53:33.429Z,6.30
2017-11-07T15:56:01.851Z,6.40
2017-11-07T15:58:29.427Z,6.40
2017-11-07T16:00:57.024Z,6.30
2017-11-07T16:03:24.554Z,6.40
2017-11-07T16:05:52.118Z,6.50
2017-11-07T16:08:19.645Z,6.50
2017-11-07T16:10:47.964Z,6.40
2017-11-07T16:13:15.501Z,6.40
2017-11-07T16:15:43.069Z,6.40
2017-11-07T16:18:10.777Z,6.30
2017-11-07T16:20:38.320Z,6.40
2017-11-07T16:23:05.880Z,6.40
2017-11-07T16:25:33.429Z,6.40
2017-11-07T16:28:00.974Z,6.40
2017-11-07T16:30:28.499Z,6.40
2017-11-07T16:32:57.072Z,6.30
2017-11-07T16:35:25.377Z,6.30
2017-11-07T16:37:53.683Z,6.30
2017-11-07T16:40:21.226Z,6.30
2017-11-07T16:42:48.784Z,6.30
2017-11-07T16:45:16.330Z,6.30
2017-11-07T16:47:43.887Z,6.20
2017-11-07T16:50:11.432Z,6.30
2017-11-07T16:52:39.765Z,6.20
2017-11-07T16:55:07.507Z,6.20
2017-11-07T16:57:35.074Z,6.20
2017-11-07T17:00:02.631Z,6.40
2017-11-07T17:02:30.200Z,6.30
2017-11-07T17:04:57.737Z,6.30
2017-11-07T17:07:25.317Z,6.30
2017-11-07T17:09:52.870Z,6.30
2017-11-07T17:12:20.402Z,6.30
2017-11-07T17:14:47.978Z,6.40
2017-11-07T17:17:15.510Z,6.30
2017-11-07T17:19:43.063Z,6.30
2017-11-07T17:22:10.612Z,6.30
2017-11-07T17:24:38.153Z,6.30
2017-11-07T17:27:05.684Z,6.30
2017-11-07T17:29:33.238Z,6.30
2017-11-07T17:32:01.534Z,6.30
2017-11-07T17:34:29.084Z,6.30
2017-11-07T17:36:56.619Z,6.20
2017-11-07T17:39:24.157Z,6.30
2017-11-07T17:41:51.717Z,6.20
2017-11-07T17:44:20.021Z,6.40
2017-11-07T17:46:47.602Z,6.30
2017-11-07T17:49:15.125Z,6.30
2017-11-07T17:51:42.699Z,6.40
2017-11-07T17:54:10.248Z,6.40
2017-11-07T17:56:37.821Z,6.40
2017-11-07T17:59:05.370Z,6.40
2017-11-07T18:01:32.932Z,6.40
2017-11-07T18:04:00.498Z,6.30
2017-11-07T18:06:28.059Z,6.30
2017-11-07T18:08:55.618Z,6.50
2017-11-07T18:11:23.150Z,6.40
2017-11-07T18:13:51.473Z,6.40
2017-11-07T18:16:19.035Z,6.40
2017-11-07T18:18:48.545Z,6.40
2017-11-07T18:21:16.081Z,6.40
2017-11-07T18:23:43.657Z,6.40
2017-11-07T18:26:11.207Z,6.50
2017-11-07T18:28:38.781Z,6.50
2017-11-07T18:31:06.319Z,6.50
2017-11-07T18:33:35.140Z,6.40
2017-11-07T18:36:02.698Z,6.40
2017-11-07T18:38:30.221Z,6.40
2017-11-07T18:40:58.557Z,6.40
2017-11-07T18:43:26.862Z,6.40
2017-11-07T18:45:54.421Z,6.50
2017-11-07T18:48:22.730Z,6.40
2017-11-07T18:50:50.279Z,6.40
2017-11-07T18:53:18.585Z,6.40
2017-11-07T18:55:46.185Z,6.40
2017-11-07T18:58:13.775Z,6.40
2017-11-07T19:00:42.105Z,6.40
2017-11-07T19:03:09.710Z,6.40
2017-11-07T19:05:38.032Z,6.40
2017-11-07T19:08:05.586Z,6.40
2017-11-07T19:10:33.165Z,6.30
2017-11-07T19:13:00.711Z,6.30
2017-11-07T19:15:28.310Z,6.40
2017-11-07T19:17:55.841Z,6.40
2017-11-07T19:20:23.475Z,6.30
2017-11-07T19:22:51.054Z,6.30
2017-11-07T19:25:18.711Z,6.30
2017-11-07T19:27:46.257Z,6.30
2017-11-07T19:30:14.083Z,6.30
2017-11-07T19:32:41.638Z,6.30
2017-11-07T19:35:09.962Z,6.40
2017-11-07T19:37:37.505Z,6.40
2017-11-07T19:40:05.184Z,6.30
2017-11-07T19:42:32.719Z,6.30
2017-11-07T19:45:01.067Z,6.20
2017-11-07T19:47:28.665Z,6.20
2017-11-07T19:49:57.171Z,6.20
2017-11-07T19:52:24.744Z,6.20
2017-11-07T19:54:52.279Z,6.30
2017-11-07T19:57:19.846Z,6.30
2017-11-07T19:59:47.372Z,6.20
2017-11-07T20:02:15.708Z,6.20
2017-11-07T20:04:43.267Z,6.20
2017-11-07T20:07:10.918Z,6.30
2017-11-07T20:09:38.481Z,6.20
2017-11-07T20:12:06.068Z,6.30
2017-11-07T20:14:33.651Z,6.20
2017-11-07T20:17:01.993Z,6.20
2017-11-07T20:19:29.555Z,6.20
2017-11-07T20:21:57.988Z,6.30
2017-11-07T20:24:25.645Z,6.30
2017-11-07T20:26:53.942Z,6.30
2017-11-07T20:29:21.510Z,6.20
2017-11-07T20:31:49.066Z,6.30
2017-11-07T20:34:16.631Z,6.20
2017-11-07T20:36:44.235Z,6.30
2017-11-07T20:39:12.542Z,6.20
2017-11-07T20:41:40.694Z,6.20
2017-11-07T20:44:08.233Z,6.20
2017-11-07T20:46:35.781Z,6.20
2017-11-07T20:49:03.338Z,6.30
2017-11-07T20:51:30.909Z,6.30
2017-11-07T20:53:58.457Z,6.30
2017-11-07T20:56:26.000Z,6.20
2017-11-07T20:58:53.661Z,6.20
2017-11-07T21:01:21.245Z,6.20
2017-11-07T21:03:48.817Z,6.20
2017-11-07T21:06:16.381Z,6.20
2017-11-07T21:08:43.947Z,6.30
2017-11-07T21:11:11.530Z,6.20
2017-11-07T21:13:39.842Z,6.30
2017-11-07T21:16:07.394Z,6.30
2017-11-07T21:18:34.945Z,6.30
2017-11-07T21:21:02.475Z,6.30
2017-11-07T21:23:31.106Z,6.30
2017-11-07T21:25:58.666Z,6.20
2017-11-07T21:28:26.248Z,6.30
2017-11-07T21:30:53.794Z,6.30
2017-11-07T21:33:21.344Z,6.30
2017-11-07T21:35:48.910Z,6.30
2017-11-07T21:38:16.563Z,6.30
2017-11-07T21:40:44.094Z,6.30
2017-11-07T21:43:11.769Z,6.30
2017-11-07T21:45:39.321Z,6.30
2017-11-07T21:48:06.884Z,6.30
2017-11-07T21:50:34.465Z,6.40
2017-11-07T21:53:02.033Z,6.30
2017-11-07T21:55:29.560Z,6.40
2017-11-07T21:57:57.121Z,6.40
2017-11-07T22:00:24.646Z,6.40
2017-11-07T22:02:53.000Z,6.40
2017-11-07T22:05:20.550Z,6.40
2017-11-07T22:07:48.135Z,6.50
2017-11-07T22:10:16.454Z,6.30
2017-11-07T22:12:44.017Z,6.30
2017-11-07T22:15:11.566Z,6.40
2017-11-07T22:17:39.144Z,6.40
2017-11-07T22:20:07.523Z,6.30
2017-11-07T22:22:40.797Z,6.30
2017-11-07T22:25:08.350Z,6.30
2017-11-07T22:27:36.686Z,6.20
2017-11-07T22:30:04.238Z,6.20
2017-11-07T22:32:31.794Z,6.20
2017-11-07T22:34:59.327Z,6.20
2017-11-07T22:37:26.920Z,6.30
2017-11-07T22:39:54.446Z,6.30
2017-11-07T22:42:22.032Z,6.20
2017-11-07T22:44:49.603Z,6.20
2017-11-07T22:47:17.153Z,6.20
2017-11-07T22:49:44.718Z,6.30
2017-11-07T22:52:12.315Z,6.20
2017-11-07T22:54:39.887Z,6.30
2017-11-07T22:57:07.425Z,6.20
2017-11-07T22:59:35.742Z,6.20
2017-11-07T23:02:03.288Z,6.20
2017-11-07T23:04:30.842Z,6.20
2017-11-07T23:06:58.388Z,6.20
2017-11-07T23:09:25.939Z,6.30
2017-11-07T23:11:54.266Z,6.20
2017-11-07T23:14:21.841Z,6.20
2017-11-07T23:16:49.368Z,6.20
2017-11-07T23:19:16.921Z,6.20
2017-11-07T23:21:44.465Z,6.10
2017-11-07T23:24:12.035Z,6.10
2017-11-07T23:26:39.570Z,6.10
2017-11-07T23:29:07.895Z,6.20
2017-11-07T23:31:35.426Z,6.20
2017-11-07T23:34:02.978Z,6.20
2017-11-07T23:36:30.513Z,6.10
2017-11-07T23:38:58.842Z,6.10
2017-11-07T23:41:26.406Z,6.20
2017-11-07T23:43:53.964Z,6.10
2017-11-07T23:46:21.508Z,6.10
2017-11-07T23:48:51.855Z,6.10
2017-11-07T23:51:19.494Z,6.30
2017-11-07T23:53:47.158Z,6.30
2017-11-07T23:56:14.675Z,6.30
2017-11-07T23:58:42.985Z,6.20
